Latest Weather Observations for Mt Wellington

IDT60901

Issued at 11:05 pm EST Saturday 26 July 2014 (issued every 10 minutes, with the page automatically refreshed every 10 minutes)

About weather observations | Map of Hobart area stations | Latest observations for Hobart area | Other Formats
Station Details ID: 094087 Name: MOUNT WELLINGTON Lat: -42.90 Lon: 147.24 Height: 1260.47 m
Data from the previous 72 hours. | See also: Recent months at Mt Wellington
Date/Time
EST
Tmp

°C
App
Tmp
°C
Dew
Point
°C
Rel
Hum
%
Delta-T

°C
Wind Press
QNH
hPa
Press
MSL
hPa
Rain
since
9 am
mm
Dir
 
Spd
km/h
Gust
km/h
Spd
kts
Gust
kts
26/11:00pm 3.2 -2.1 2.9 98 0.1 WSW 20 26 11 14 - - 0.0
26/10:30pm 3.2 -1.9 2.9 98 0.1 WSW 19 20 10 11 - - 0.0
26/10:00pm 3.3 -2.0 3.0 98 0.1 WSW 20 24 11 13 - - 0.0
26/09:30pm 3.3 -2.4 3.0 98 0.1 SW 22 26 12 14 - - 0.0
26/09:00pm 3.2 -2.1 2.9 98 0.1 SW 20 24 11 13 - - 0.0
26/08:30pm 2.4 -3.1 1.8 96 0.3 SW 20 22 11 12 - - 0.0
26/08:00pm 2.2 -3.4 1.3 94 0.4 SW 20 22 11 12 - - 0.0
26/07:30pm 2.4 -3.1 1.7 95 0.3 SW 20 22 11 12 - - 0.0
26/07:00pm 2.6 -3.3 1.9 95 0.3 SSW 22 24 12 13 - - 0.0
26/06:30pm 2.5 -3.8 1.8 95 0.3 SSW 24 26 13 14 - - 0.0
26/06:00pm 2.5 -3.3 2.2 98 0.1 SW 22 24 12 13 - - 0.0
26/05:30pm 3.4 -2.3 3.1 98 0.1 SW 22 26 12 14 - - 0.0
26/05:00pm 3.4 -1.7 3.1 98 0.1 SW 19 22 10 12 - - 0.0
26/04:30pm 3.7 -0.7 2.7 93 0.4 SW 15 19 8 10 - - 0.0
26/04:00pm 5.0 1.3 2.5 84 1.1 SSW 11 15 6 8 - - 0.0
26/03:30pm 5.9 2.2 2.2 77 1.6 SW 11 15 6 8 - - 0.0
26/03:00pm 6.1 2.8 2.2 76 1.7 SW 9 15 5 8 - - 0.0
26/02:30pm 6.0 2.7 2.6 79 1.5 SSW 9 13 5 7 - - 0.0
26/02:00pm 6.0 3.8 3.2 82 1.3 S 4 7 2 4 - - 0.0
26/01:30pm 5.3 3.1 3.2 86 0.9 S 4 9 2 5 - - 0.0
26/01:00pm 5.0 2.7 3.0 87 0.9 SW 4 7 2 4 - - 0.0
26/12:30pm 4.3 2.0 3.0 91 0.6 SSW 4 6 2 3 - - 0.0
26/12:00pm 5.7 3.4 3.0 83 1.2 S 4 6 2 3 - - 0.0
26/11:30am 4.2 2.0 3.3 94 0.4 SSW 4 7 2 4 - - 0.0
26/11:00am 4.7 2.4 2.7 87 0.9 W 4 6 2 3 - - 0.0
26/10:30am 5.1 3.7 3.4 89 0.8 CALM 0 4 0 2 - - 0.0
26/10:00am 5.6 3.6 4.2 91 0.6 NE 4 7 2 4 - - 0.0
26/09:30am 6.3 4.3 4.3 87 0.9 N 4 7 2 4 - - 0.0
26/09:00am 5.4 3.6 3.6 88 0.8 W 2 4 1 2 - - 0.0
26/08:30am 4.2 1.9 2.7 90 0.7 NNW 4 6 2 3 - - 0.0
26/08:00am 3.5 0.6 2.5 93 0.4 N 7 9 4 5 - - 0.0
26/07:30am 2.8 -0.6 1.8 93 0.4 N 9 11 5 6 - - 0.0
26/07:00am 2.6 -0.8 1.7 94 0.4 NNE 9 11 5 6 - - 0.0
26/06:30am 2.6 -0.5 1.6 93 0.4 N 7 9 4 5 - - 0.0
26/06:00am 2.8 -0.2 2.1 95 0.3 N 7 11 4 6 - - 0.0
26/05:30am 2.8 -1.0 1.9 94 0.4 NNE 11 15 6 8 - - 0.0
26/05:00am 2.9 -0.8 2.2 95 0.3 NNE 11 13 6 7 - - 0.0
26/04:30am 2.9 0.0 2.5 97 0.2 N 7 9 4 5 - - 0.0
26/04:00am 2.9 -0.8 2.5 97 0.2 N 11 15 6 8 - - 0.0
26/03:30am 2.8 -1.3 2.2 96 0.3 N 13 15 7 8 - - 0.0
26/03:00am 3.0 -1.0 2.6 97 0.2 N 13 17 7 9 - - 0.0
26/02:30am 2.9 -1.2 2.2 95 0.3 N 13 17 7 9 - - 0.0
26/02:00am 3.0 -1.1 2.3 95 0.3 N 13 17 7 9 - - 0.0
26/01:30am 2.9 -1.6 2.0 94 0.4 N 15 19 8 10 - - 0.0
26/01:00am 2.9 -0.9 1.9 93 0.4 N 11 13 6 7 - - 0.0
26/12:30am 2.8 -1.0 1.9 94 0.4 NNE 11 13 6 7 - - 0.0
26/12:00am 3.1 -0.7 1.9 92 0.5 NE 11 15 6 8 - - 0.0
 
Date/Time
EST
Tmp

°C
App
Tmp
°C
Dew
Point
°C
Rel
Hum
%
Delta-T

°C
Wind Press
QNH
hPa
Press
MSL
hPa
Rain
since
9 am
mm
Dir
 
Spd
km/h
Gust
km/h
Spd
kts
Gust
kts
25/11:30pm 3.4 -0.4 1.8 89 0.7 NE 11 15 6 8 - - 0.0
25/11:00pm 3.5 0.0 1.5 87 0.8 NE 9 13 5 7 - - 0.0
25/10:30pm 3.5 0.0 1.2 85 1.0 NNE 9 9 5 5 - - 0.0
25/10:00pm 3.5 0.4 1.1 84 1.0 NNE 7 9 4 5 - - 0.0
25/09:30pm 3.7 0.8 1.3 84 1.0 NNE 6 7 3 4 - - 0.0
25/09:00pm 3.6 0.5 1.3 85 1.0 N 7 7 4 4 - - 0.0
25/08:30pm 3.4 0.4 1.8 89 0.7 N 7 11 4 6 - - 0.0
25/08:00pm 3.8 0.1 2.2 89 0.7 N 11 13 6 7 - - 0.0
25/07:30pm 3.7 -0.5 1.7 87 0.9 N 13 15 7 8 - - 0.0
25/07:00pm 4.0 -0.6 1.7 85 1.0 N 15 20 8 11 - - 0.0
25/06:30pm 3.7 -1.6 1.9 88 0.8 N 19 26 10 14 - - 0.0
25/06:00pm 3.6 -1.2 2.7 94 0.4 N 17 24 9 13 - - 0.0
25/05:30pm 3.8 -1.9 2.8 93 0.4 N 22 30 12 16 - - 0.0
25/05:00pm 3.9 -1.1 3.5 97 0.2 N 19 24 10 13 - - 0.0
25/04:30pm 4.3 -1.2 4.0 98 0.1 NNE 22 30 12 16 - - 0.0
25/04:00pm 4.6 0.8 3.9 95 0.3 NNE 13 17 7 9 - - 0.0
25/03:30pm 6.0 0.7 3.0 81 1.3 N 20 26 11 14 - - 0.0
25/03:00pm 6.4 0.8 3.7 83 1.2 N 22 26 12 14 - - 0.0
25/02:30pm 5.7 0.1 3.2 84 1.1 N 22 26 12 14 - - 0.0
25/02:00pm 5.0 -0.5 4.0 93 0.5 N 22 28 12 15 - - 0.0
25/01:30pm 5.9 0.6 5.2 95 0.3 N 22 32 12 17 - - 0.0
25/01:00pm 5.5 -1.0 4.8 95 0.3 N 28 35 15 19 - - 0.0
25/12:30pm 5.6 -1.2 4.9 95 0.3 N 30 39 16 21 - - 0.0
25/12:00pm 5.7 -0.7 5.1 96 0.3 N 28 35 15 19 - - 0.0
25/11:30am 4.8 -1.4 4.4 97 0.2 N 26 33 14 18 - - 0.0
25/11:00am 4.0 -2.7 3.6 97 0.2 N 28 35 15 19 - - 0.0
25/10:30am 3.1 -3.0 3.0 99 0.0 N 24 30 13 16 - - 0.0
25/10:00am 4.8 -1.3 4.7 99 0.0 N 26 32 14 17 - - 0.0
25/09:30am 4.5 -3.0 4.4 99 0.0 N 33 41 18 22 - - 0.0
25/09:00am 4.3 -4.8 4.2 99 0.0 NNE 41 54 22 29 - - 0.4
25/08:40am 4.3 -4.4 4.2 99 0.0 NNE 39 57 21 31 - - 0.4
25/08:30am 4.2 -5.5 4.1 99 0.0 N 44 57 24 31 - - 0.4
25/08:00am 4.2 -5.3 4.1 99 0.0 N 43 57 23 31 - - 0.2
25/07:30am 4.1 -5.0 4.0 99 0.0 N 41 52 22 28 - - 0.2
25/07:00am 4.4 -3.9 4.3 99 0.0 N 37 46 20 25 - - 0.2
25/06:30am 4.2 -3.7 4.1 99 0.0 NNE 35 44 19 24 - - 0.2
25/06:00am 3.9 -4.1 3.8 99 0.0 N 35 43 19 23 - - 0.2
25/05:30am 3.7 -3.4 3.6 99 0.0 NNE 30 35 16 19 - - 0.2
25/05:00am 3.5 -3.6 3.4 99 0.0 N 30 37 16 20 - - 0.2
25/04:30am 3.5 -3.2 3.4 99 0.0 N 28 35 15 19 - - 0.0
25/04:00am 3.5 -2.1 3.4 99 0.0 N 22 28 12 15 - - 0.0
25/03:30am 3.6 -3.9 3.5 99 0.0 N 32 41 17 22 - - 0.0
25/03:00am 3.6 -3.1 3.5 99 0.0 N 28 39 15 21 - - 0.0
25/02:30am 3.5 -3.6 3.4 99 0.0 N 30 39 16 21 - - 0.0
25/02:00am 3.2 -4.0 3.1 99 0.0 N 30 35 16 19 - - 0.0
25/01:30am 3.0 -4.8 2.9 99 0.0 N 33 44 18 24 - - 0.0
25/01:00am 3.0 -5.5 2.9 99 0.0 N 37 48 20 26 - - 0.0
25/12:30am 2.8 -5.4 2.7 99 0.0 N 35 44 19 24 - - 0.0
25/12:00am 2.4 -4.9 2.3 99 0.0 N 30 37 16 20 - - 0.0
 
Date/Time
EST
Tmp

°C
App
Tmp
°C
Dew
Point
°C
Rel
Hum
%
Delta-T

°C
Wind Press
QNH
hPa
Press
MSL
hPa
Rain
since
9 am
mm
Dir
 
Spd
km/h
Gust
km/h
Spd
kts
Gust
kts
24/11:30pm 2.4 -4.6 2.1 98 0.1 N 28 39 15 21 - - 0.0
24/11:00pm 2.3 -4.7 2.0 98 0.1 N 28 35 15 19 - - 0.0
24/10:30pm 2.3 -5.1 2.0 98 0.1 N 30 37 16 20 - - 0.0
24/10:00pm 2.2 -5.6 1.9 98 0.1 N 32 39 17 21 - - 0.0
24/09:30pm 1.6 -4.8 0.9 95 0.3 NNW 24 28 13 15 - - 0.0
24/09:00pm 1.7 -5.1 1.1 96 0.2 NNW 26 30 14 16 - - 0.0
24/08:30pm 1.8 -5.0 0.5 91 0.5 NNW 26 32 14 17 - - 0.0
24/08:00pm 2.4 -5.7 -0.4 82 1.1 N 32 37 17 20 - - 0.0
24/07:30pm 2.7 -5.6 -2.0 71 1.8 NNW 32 37 17 20 - - 0.0
24/07:00pm 2.0 -5.3 0.1 87 0.8 N 28 32 15 17 - - 0.0
24/06:30pm 1.9 -5.0 0.0 87 0.8 NNW 26 30 14 16 - - 0.0
24/06:00pm 1.9 -5.0 0.0 87 0.8 N 26 32 14 17 - - 0.0
24/05:30pm 2.1 -5.0 -1.3 78 1.3 N 26 30 14 16 - - 0.0
24/05:00pm 2.5 -4.5 -3.2 66 2.1 N 24 30 13 16 - - 0.0
24/04:30pm 3.0 -4.2 -4.9 56 2.8 N 24 33 13 18 - - 0.0
24/04:00pm 3.6 -3.8 -7.2 45 3.9 N 24 30 13 16 - - 0.0
24/03:30pm 4.3 -2.9 -10.1 34 4.8 N 22 28 12 15 - - 0.0
24/03:00pm 4.0 -2.6 -9.7 36 4.6 N 19 20 10 11 - - 0.0
24/02:30pm 4.1 -2.5 -8.9 38 4.5 N 19 22 10 12 - - 0.0
24/02:00pm 4.6 -1.5 -7.5 41 4.1 N 17 20 9 11 - - 0.0
24/01:30pm 4.6 -1.4 -11.9 29 5.3 N 15 19 8 10 - - 0.0
24/01:00pm 6.5 0.7 -8.2 34 5.1 N 15 19 8 10 - - 0.0
24/12:30pm 5.8 -0.3 -8.1 36 4.8 N 17 19 9 10 - - 0.0
24/12:00pm 6.2 1.0 -5.7 42 4.3 N 13 17 7 9 - - 0.0
24/11:30am 6.0 0.8 -6.6 40 4.5 N 13 17 7 9 - - 0.0
24/11:00am 6.0 1.4 -4.2 48 3.9 N 11 19 6 10 - - 0.0
24/10:30am 6.0 1.9 -6.2 41 4.4 NNW 7 13 4 7 - - 0.0
24/10:00am 5.4 0.8 -7.8 38 4.5 NW 9 13 5 7 - - 0.0
24/09:30am 4.5 -0.5 -13.3 26 5.5 NW 9 11 5 6 - - 0.0
24/09:00am 2.8 -2.8 -10.8 36 4.3 WNW 13 15 7 8 - - 0.0
24/08:30am 2.9 -2.4 -12.9 30 4.8 WNW 11 13 6 7 - - 0.0
24/08:00am 2.4 -3.4 -13.8 29 4.7 W 13 15 7 8 - - 0.0
24/07:30am 1.2 -3.5 -9.7 44 3.5 WSW 9 11 5 6 - - 0.0
24/07:00am 1.5 -2.8 -9.4 44 3.5 WSW 7 9 4 5 - - 0.0
24/06:30am 1.1 -4.0 -8.9 47 3.2 WNW 11 13 6 7 - - 0.0
24/06:00am 1.4 -3.2 -8.4 48 3.2 NW 9 9 5 5 - - 0.0
24/05:30am 1.0 -3.2 -4.0 69 1.9 N 9 9 5 5 - - 0.0
24/05:00am 1.2 -2.9 -3.1 73 1.6 N 9 11 5 6 - - 0.0
24/04:30am 0.8 -4.4 -2.9 76 1.4 N 15 17 8 9 - - 0.0
24/04:00am 0.8 -4.0 -2.8 77 1.4 N 13 15 7 8 - - 0.0
24/03:30am 0.8 -4.3 -2.2 80 1.2 N 15 17 8 9 - - 0.0
24/03:00am 0.7 -4.4 -1.7 84 0.9 NNW 15 17 8 9 - - 0.0
24/02:30am 0.7 -4.3 -1.5 85 0.9 N 15 19 8 10 - - 0.0
24/02:00am 0.6 -4.8 -1.5 86 0.8 NNW 17 19 9 10 - - 0.0
24/01:30am 0.4 -4.3 -1.7 86 0.8 NNW 13 17 7 9 - - 0.0
24/01:00am 0.5 -4.5 -1.3 88 0.7 NNW 15 17 8 9 - - 0.0
24/12:30am 0.3 -4.3 -1.1 90 0.6 NNW 13 17 7 9 - - 0.0
24/12:00am 0.2 -5.2 -1.4 89 0.6 NNW 17 20 9 11 - - 0.0
 
Date/Time
EST
Tmp

°C
App
Tmp
°C
Dew
Point
°C
Rel
Hum
%
Delta-T

°C
Wind Press
QNH
hPa
Press
MSL
hPa
Rain
since
9 am
mm
Dir
 
Spd
km/h
Gust
km/h
Spd
kts
Gust
kts
23/11:30pm 0.3 -4.8 -1.6 87 0.7 NNW 15 17 8 9 - - 0.0

Latest Capital City Observations: Canberra | Sydney | Melbourne | Brisbane | Adelaide | Perth | Hobart | Darwin

Other Formats:

Comma delimited format used in spreadsheet applications
http://www.bom.gov.au/fwo/IDT60901/IDT60901.95979.axf

JavaScript Object Notation format (JSON) in row-major order
http://www.bom.gov.au/fwo/IDT60901/IDT60901.95979.json